sensor_id;sensor_type;location;lat;lon;timestamp;pressure;altitude;pressure_sealevel;temperature;humidity
64343;BME280;50675;53.530;-6.312;2022-08-14T00:01:02;100580.94;;;18.47;57.32
64343;BME280;50675;53.530;-6.312;2022-08-14T00:03:30;100584.09;;;18.54;57.38
64343;BME280;50675;53.530;-6.312;2022-08-14T00:05:57;100579.69;;;18.58;57.27
64343;BME280;50675;53.530;-6.312;2022-08-14T00:08:23;100577.81;;;18.53;57.36
64343;BME280;50675;53.530;-6.312;2022-08-14T00:10:50;100574.78;;;18.55;57.57
64343;BME280;50675;53.530;-6.312;2022-08-14T00:13:19;100569.03;;;18.56;57.49
64343;BME280;50675;53.530;-6.312;2022-08-14T00:15:47;100571.47;;;18.58;57.65
64343;BME280;50675;53.530;-6.312;2022-08-14T00:18:19;100576.13;;;18.57;57.63
64343;BME280;50675;53.530;-6.312;2022-08-14T00:20:46;100563.03;;;18.54;57.68
64343;BME280;50675;53.530;-6.312;2022-08-14T00:23:14;100563.34;;;18.53;57.66
64343;BME280;50675;53.530;-6.312;2022-08-14T00:25:41;100564.16;;;18.53;57.67
64343;BME280;50675;53.530;-6.312;2022-08-14T00:28:08;100559.19;;;18.55;57.99
64343;BME280;50675;53.530;-6.312;2022-08-14T00:30:35;100557.78;;;18.58;58.08
64343;BME280;50675;53.530;-6.312;2022-08-14T00:33:01;100562.22;;;18.54;57.87
64343;BME280;50675;53.530;-6.312;2022-08-14T00:35:27;100558.97;;;18.52;58.04
64343;BME280;50675;53.530;-6.312;2022-08-14T00:37:53;100563.03;;;18.54;58.23
64343;BME280;50675;53.530;-6.312;2022-08-14T00:40:19;100554.53;;;18.56;58.26
64343;BME280;50675;53.530;-6.312;2022-08-14T00:42:46;100546.09;;;18.52;58.29
64343;BME280;50675;53.530;-6.312;2022-08-14T00:45:13;100553.50;;;18.52;58.60
64343;BME280;50675;53.530;-6.312;2022-08-14T00:47:40;100549.13;;;18.51;58.35
64343;BME280;50675;53.530;-6.312;2022-08-14T00:50:08;100541.16;;;18.54;58.74
64343;BME280;50675;53.530;-6.312;2022-08-14T00:52:34;100535.41;;;18.56;58.62
64343;BME280;50675;53.530;-6.312;2022-08-14T00:55:00;100534.28;;;18.57;58.63
64343;BME280;50675;53.530;-6.312;2022-08-14T00:57:29;100532.94;;;18.54;58.54
64343;BME280;50675;53.530;-6.312;2022-08-14T00:59:55;100525.13;;;18.48;58.91
64343;BME280;50675;53.530;-6.312;2022-08-14T01:02:22;100525.63;;;18.50;58.95
64343;BME280;50675;53.530;-6.312;2022-08-14T01:04:53;100532.19;;;18.49;58.97
64343;BME280;50675;53.530;-6.312;2022-08-14T01:07:21;100535.41;;;18.56;59.15
64343;BME280;50675;53.530;-6.312;2022-08-14T01:09:52;100541.69;;;18.56;59.27
64343;BME280;50675;53.530;-6.312;2022-08-14T01:12:21;100528.06;;;18.51;59.28
64343;BME280;50675;53.530;-6.312;2022-08-14T01:14:47;100526.16;;;18.52;59.04
64343;BME280;50675;53.530;-6.312;2022-08-14T01:17:21;100528.06;;;18.51;59.29
64343;BME280;50675;53.530;-6.312;2022-08-14T01:19:47;100525.63;;;18.50;59.55
64343;BME280;50675;53.530;-6.312;2022-08-14T01:22:32;100517.50;;;18.45;59.62
64343;BME280;50675;53.530;-6.312;2022-08-14T01:24:58;100522.41;;;18.48;59.70
64343;BME280;50675;53.530;-6.312;2022-08-14T01:27:24;100521.25;;;18.49;59.45
64343;BME280;50675;53.530;-6.312;2022-08-14T01:29:54;100511.84;;;18.41;59.58
64343;BME280;50675;53.530;-6.312;2022-08-14T01:32:21;100514.28;;;18.43;59.83
64343;BME280;50675;53.530;-6.312;2022-08-14T01:34:51;100514.97;;;18.34;59.84
64343;BME280;50675;53.530;-6.312;2022-08-14T01:37:18;100505.19;;;18.33;60.05
64343;BME280;50675;53.530;-6.312;2022-08-14T01:39:47;100509.03;;;18.32;59.69
64343;BME280;50675;53.530;-6.312;2022-08-14T01:42:13;100503.84;;;18.31;60.03
64343;BME280;50675;53.530;-6.312;2022-08-14T01:44:39;100500.09;;;18.27;60.08
64343;BME280;50675;53.530;-6.312;2022-08-14T01:47:07;100497.75;;;18.20;59.98
64343;BME280;50675;53.530;-6.312;2022-08-14T01:49:40;100494.53;;;18.18;60.15
64343;BME280;50675;53.530;-6.312;2022-08-14T01:52:06;100488.53;;;18.16;60.24
64343;BME280;50675;53.530;-6.312;2022-08-14T01:54:33;100489.78;;;18.10;60.24
64343;BME280;50675;53.530;-6.312;2022-08-14T01:56:59;100490.25;;;18.12;60.28
64343;BME280;50675;53.530;-6.312;2022-08-14T01:59:27;100483.25;;;18.06;60.28
64343;BME280;50675;53.530;-6.312;2022-08-14T02:01:58;100483.25;;;18.06;60.30
64343;BME280;50675;53.530;-6.312;2022-08-14T02:04:30;100489.03;;;18.05;60.25
64343;BME280;50675;53.530;-6.312;2022-08-14T02:06:56;100480.13;;;17.99;60.23
64343;BME280;50675;53.530;-6.312;2022-08-14T02:09:22;100480.13;;;17.99;60.53
64343;BME280;50675;53.530;-6.312;2022-08-14T02:11:48;100481.22;;;17.98;60.26
64343;BME280;50675;53.530;-6.312;2022-08-14T02:14:15;100473.31;;;17.97;60.28
64343;BME280;50675;53.530;-6.312;2022-08-14T02:16:45;100466.03;;;17.92;60.31
64343;BME280;50675;53.530;-6.312;2022-08-14T02:19:16;100464.44;;;17.91;60.47
64343;BME280;50675;53.530;-6.312;2022-08-14T02:21:44;100462.81;;;17.90;60.56
64343;BME280;50675;53.530;-6.312;2022-08-14T02:24:11;100453.59;;;17.86;60.58
64343;BME280;50675;53.530;-6.312;2022-08-14T02:26:39;100454.69;;;17.85;60.65
64343;BME280;50675;53.530;-6.312;2022-08-14T02:29:11;100456.00;;;17.87;60.46
64343;BME280;50675;53.530;-6.312;2022-08-14T02:31:40;100454.09;;;17.88;60.42
64343;BME280;50675;53.530;-6.312;2022-08-14T02:34:15;100460.38;;;17.88;60.75
64343;BME280;50675;53.530;-6.312;2022-08-14T02:36:44;100452.97;;;17.89;60.64
64343;BME280;50675;53.530;-6.312;2022-08-14T02:39:11;100447.00;;;17.87;60.73
64343;BME280;50675;53.530;-6.312;2022-08-14T02:41:38;100444.25;;;17.87;60.63
64343;BME280;50675;53.530;-6.312;2022-08-14T02:44:06;100446.69;;;17.88;60.79
64343;BME280;50675;53.530;-6.312;2022-08-14T02:46:39;100448.63;;;17.88;61.18
64343;BME280;50675;53.530;-6.312;2022-08-14T02:49:06;100441.84;;;17.85;60.89
64343;BME280;50675;53.530;-6.312;2022-08-14T02:51:33;100444.25;;;17.87;60.91
64343;BME280;50675;53.530;-6.312;2022-08-14T02:53:59;100434.66;;;17.89;61.05
64343;BME280;50675;53.530;-6.312;2022-08-14T02:56:26;100441.34;;;17.97;61.28
64343;BME280;50675;53.530;-6.312;2022-08-14T02:58:54;100433.97;;;17.98;61.18
64343;BME280;50675;53.530;-6.312;2022-08-14T03:01:22;100434.78;;;17.98;61.41
64343;BME280;50675;53.530;-6.312;2022-08-14T03:03:49;100425.47;;;17.99;61.43
64343;BME280;50675;53.530;-6.312;2022-08-14T03:06:18;100430.13;;;17.99;61.28
64343;BME280;50675;53.530;-6.312;2022-08-14T03:08:48;100427.91;;;18.01;61.51
64343;BME280;50675;53.530;-6.312;2022-08-14T03:11:14;100422.72;;;17.99;61.23
64343;BME280;50675;53.530;-6.312;2022-08-14T03:13:45;100422.81;;;17.94;61.46
64343;BME280;50675;53.530;-6.312;2022-08-14T03:16:17;100432.03;;;17.98;61.50
64343;BME280;50675;53.530;-6.312;2022-08-14T03:18:45;100426.88;;;17.97;61.60
64343;BME280;50675;53.530;-6.312;2022-08-14T03:21:16;100430.72;;;17.96;61.62
64343;BME280;50675;53.530;-6.312;2022-08-14T03:23:44;100428.00;;;17.96;61.68
64343;BME280;50675;53.530;-6.312;2022-08-14T03:26:13;100414.44;;;17.90;61.62
64343;BME280;50675;53.530;-6.312;2022-08-14T03:28:41;100421.50;;;17.91;61.78
64343;BME280;50675;53.530;-6.312;2022-08-14T03:31:08;100413.91;;;17.88;61.85
64343;BME280;50675;53.530;-6.312;2022-08-14T03:33:35;100415.81;;;17.88;61.71
64343;BME280;50675;53.530;-6.312;2022-08-14T03:36:06;100411.78;;;17.85;61.86
64343;BME280;50675;53.530;-6.312;2022-08-14T03:38:40;100404.69;;;17.84;61.97
64343;BME280;50675;53.530;-6.312;2022-08-14T03:41:13;100406.09;;;17.82;62.20
64343;BME280;50675;53.530;-6.312;2022-08-14T03:43:49;100409.34;;;17.84;62.04
64343;BME280;50675;53.530;-6.312;2022-08-14T03:46:16;100396.78;;;17.83;62.24
64343;BME280;50675;53.530;-6.312;2022-08-14T03:48:44;100393.06;;;17.79;62.05
64343;BME280;50675;53.530;-6.312;2022-08-14T03:51:11;100380.59;;;17.73;62.25
64343;BME280;50675;53.530;-6.312;2022-08-14T03:53:42;100385.66;;;17.79;62.32
64343;BME280;50675;53.530;-6.312;2022-08-14T03:56:11;100381.13;;;17.75;62.05
64343;BME280;50675;53.530;-6.312;2022-08-14T03:58:42;100381.13;;;17.75;62.10
64343;BME280;50675;53.530;-6.312;2022-08-14T04:01:11;100375.94;;;17.73;62.20
64343;BME280;50675;53.530;-6.312;2022-08-14T04:03:37;100372.72;;;17.71;62.32
64343;BME280;50675;53.530;-6.312;2022-08-14T04:06:04;100362.38;;;17.68;62.15
64343;BME280;50675;53.530;-6.312;2022-08-14T04:08:34;100364.81;;;17.70;62.35
64343;BME280;50675;53.530;-6.312;2022-08-14T04:10:59;100355.00;;;17.69;62.34
64343;BME280;50675;53.530;-6.312;2022-08-14T04:13:25;100361.56;;;17.68;62.31
64343;BME280;50675;53.530;-6.312;2022-08-14T04:15:51;100355.00;;;17.69;62.41
64343;BME280;50675;53.530;-6.312;2022-08-14T04:18:17;100356.09;;;17.68;62.38
64343;BME280;50675;53.530;-6.312;2022-08-14T04:20:43;100347.13;;;17.67;62.54
64343;BME280;50675;53.530;-6.312;2022-08-14T04:23:09;100348.44;;;17.70;62.58
64343;BME280;50675;53.530;-6.312;2022-08-14T04:25:35;100350.63;;;17.68;62.68
64343;BME280;50675;53.530;-6.312;2022-08-14T04:28:03;100351.97;;;17.70;62.63
64343;BME280;50675;53.530;-6.312;2022-08-14T04:30:30;100351.78;;;17.67;62.67
64343;BME280;50675;53.530;-6.312;2022-08-14T04:32:56;100350.06;;;17.71;62.76
64343;BME280;50675;53.530;-6.312;2022-08-14T04:35:22;100346.13;;;17.77;62.67
64343;BME280;50675;53.530;-6.312;2022-08-14T04:37:48;100342.56;;;17.76;62.72
64343;BME280;50675;53.530;-6.312;2022-08-14T04:40:32;100348.84;;;17.77;62.68
64343;BME280;50675;53.530;-6.312;2022-08-14T04:43:16;100330.84;;;17.76;62.75
64343;BME280;50675;53.530;-6.312;2022-08-14T04:46:06;100346.50;;;17.84;62.99
64343;BME280;50675;53.530;-6.312;2022-08-14T04:48:31;100333.94;;;17.83;62.80
64343;BME280;50675;53.530;-6.312;2022-08-14T04:50:58;100338.94;;;17.81;63.08
64343;BME280;50675;53.530;-6.312;2022-08-14T04:53:26;100342.16;;;17.83;63.13
64343;BME280;50675;53.530;-6.312;2022-08-14T04:55:53;100324.34;;;17.85;63.19
64343;BME280;50675;53.530;-6.312;2022-08-14T04:58:22;100327.91;;;17.86;63.14
64343;BME280;50675;53.530;-6.312;2022-08-14T05:00:49;100335.28;;;17.85;63.14
64343;BME280;50675;53.530;-6.312;2022-08-14T05:03:17;100328.19;;;17.84;63.31
64343;BME280;50675;53.530;-6.312;2022-08-14T05:05:50;100331.22;;;17.83;63.39
64343;BME280;50675;53.530;-6.312;2022-08-14T05:08:17;100323.03;;;17.83;63.28
64343;BME280;50675;53.530;-6.312;2022-08-14T05:10:45;100323.53;;;17.85;63.47
64343;BME280;50675;53.530;-6.312;2022-08-14T05:13:11;100324.34;;;17.85;63.21
64343;BME280;50675;53.530;-6.312;2022-08-14T05:15:39;100318.06;;;17.85;63.40
64343;BME280;50675;53.530;-6.312;2022-08-14T05:18:10;100330.13;;;17.84;63.54
64343;BME280;50675;53.530;-6.312;2022-08-14T05:20:38;100322.53;;;17.81;63.41
64343;BME280;50675;53.530;-6.312;2022-08-14T05:23:05;100327.38;;;17.84;63.41
64343;BME280;50675;53.530;-6.312;2022-08-14T05:25:33;100325.75;;;17.83;63.31
64343;BME280;50675;53.530;-6.312;2022-08-14T05:28:07;100317.25;;;17.84;63.51
64343;BME280;50675;53.530;-6.312;2022-08-14T05:30:34;100318.06;;;17.85;63.54
64343;BME280;50675;53.530;-6.312;2022-08-14T05:33:00;100319.19;;;17.70;63.53
64343;BME280;50675;53.530;-6.312;2022-08-14T05:35:26;100316.94;;;17.59;63.99
64343;BME280;50675;53.530;-6.312;2022-08-14T05:37:52;100324.75;;;17.79;63.72
64343;BME280;50675;53.530;-6.312;2022-08-14T05:40:18;100321.28;;;17.87;63.65
64343;BME280;50675;53.530;-6.312;2022-08-14T05:42:44;100327.69;;;17.96;63.69
64343;BME280;50675;53.530;-6.312;2022-08-14T05:45:10;100332.44;;;18.04;63.78
64343;BME280;50675;53.530;-6.312;2022-08-14T05:47:39;100330.41;;;18.10;64.02
64343;BME280;50675;53.530;-6.312;2022-08-14T05:50:11;100333.97;;;18.10;64.08
64343;BME280;50675;53.530;-6.312;2022-08-14T05:52:37;100329.97;;;18.16;64.04
64343;BME280;50675;53.530;-6.312;2022-08-14T05:55:05;100331.19;;;18.24;64.03
64343;BME280;50675;53.530;-6.312;2022-08-14T05:57:31;100325.91;;;18.27;64.08
64343;BME280;50675;53.530;-6.312;2022-08-14T05:59:57;100326.09;;;18.31;64.40
64343;BME280;50675;53.530;-6.312;2022-08-14T06:02:22;100329.66;;;18.31;64.06
64343;BME280;50675;53.530;-6.312;2022-08-14T06:04:48;100332.28;;;18.36;64.36
64343;BME280;50675;53.530;-6.312;2022-08-14T06:07:14;100327.81;;;18.41;64.43
64343;BME280;50675;53.530;-6.312;2022-08-14T06:09:40;100332.53;;;18.49;64.52
64343;BME280;50675;53.530;-6.312;2022-08-14T06:12:07;100323.22;;;18.50;64.31
64343;BME280;50675;53.530;-6.312;2022-08-14T06:14:33;100339.13;;;18.61;64.38
64343;BME280;50675;53.530;-6.312;2022-08-14T06:16:59;100331.63;;;18.67;64.83
64343;BME280;50675;53.530;-6.312;2022-08-14T06:19:25;100323.34;;;18.81;64.71
64343;BME280;50675;53.530;-6.312;2022-08-14T06:21:51;100325.22;;;18.94;64.86
64343;BME280;50675;53.530;-6.312;2022-08-14T06:24:17;100327.34;;;19.28;64.79
64343;BME280;50675;53.530;-6.312;2022-08-14T06:26:46;100320.75;;;19.51;64.87
64343;BME280;50675;53.530;-6.312;2022-08-14T06:29:14;100324.03;;;19.70;64.98
64343;BME280;50675;53.530;-6.312;2022-08-14T06:31:45;100314.59;;;19.85;64.97
64343;BME280;50675;53.530;-6.312;2022-08-14T06:34:17;100314.63;;;20.10;64.66
64343;BME280;50675;53.530;-6.312;2022-08-14T06:36:43;100321.66;;;20.42;64.67
64343;BME280;50675;53.530;-6.312;2022-08-14T06:39:09;100316.66;;;20.62;64.95
64343;BME280;50675;53.530;-6.312;2022-08-14T06:41:35;100298.56;;;20.78;64.69
64343;BME280;50675;53.530;-6.312;2022-08-14T06:44:01;100304.66;;;21.09;64.45
64343;BME280;50675;53.530;-6.312;2022-08-14T06:46:29;100306.72;;;21.29;64.67
64343;BME280;50675;53.530;-6.312;2022-08-14T06:48:56;100314.94;;;21.47;64.59
64343;BME280;50675;53.530;-6.312;2022-08-14T06:51:22;100315.06;;;21.50;64.26
64343;BME280;50675;53.530;-6.312;2022-08-14T06:53:48;100319.25;;;21.56;64.28
64343;BME280;50675;53.530;-6.312;2022-08-14T06:56:14;100315.56;;;21.52;64.18
64343;BME280;50675;53.530;-6.312;2022-08-14T06:58:39;100308.09;;;21.61;64.30
64343;BME280;50675;53.530;-6.312;2022-08-14T07:01:05;100306.41;;;21.69;63.83
64343;BME280;50675;53.530;-6.312;2022-08-14T07:04:03;100311.38;;;21.84;63.93
64343;BME280;50675;53.530;-6.312;2022-08-14T07:06:47;100304.38;;;21.95;63.33
64343;BME280;50675;53.530;-6.312;2022-08-14T07:09:14;100304.59;;;22.11;63.49
64343;BME280;50675;53.530;-6.312;2022-08-14T07:11:40;100292.88;;;22.22;63.22
64343;BME280;50675;53.530;-6.312;2022-08-14T07:14:06;100298.13;;;22.36;63.17
64343;BME280;50675;53.530;-6.312;2022-08-14T07:16:32;100296.09;;;22.45;63.22
64343;BME280;50675;53.530;-6.312;2022-08-14T07:18:58;100289.88;;;22.57;62.96
64343;BME280;50675;53.530;-6.312;2022-08-14T07:21:23;100291.03;;;22.68;62.83
64343;BME280;50675;53.530;-6.312;2022-08-14T07:23:49;100295.97;;;22.83;62.66
64343;BME280;50675;53.530;-6.312;2022-08-14T07:26:15;100285.06;;;22.87;62.44
64343;BME280;50675;53.530;-6.312;2022-08-14T07:28:41;100286.25;;;22.98;62.38
64343;BME280;50675;53.530;-6.312;2022-08-14T07:31:09;100294.31;;;23.03;62.33
64343;BME280;50675;53.530;-6.312;2022-08-14T07:33:40;100284.44;;;23.02;61.95
64343;BME280;50675;53.530;-6.312;2022-08-14T07:36:08;100284.47;;;23.14;61.83
64343;BME280;50675;53.530;-6.312;2022-08-14T07:38:35;100280.34;;;23.20;61.61
64343;BME280;50675;53.530;-6.312;2022-08-14T07:41:02;100274.28;;;23.39;61.45
64343;BME280;50675;53.530;-6.312;2022-08-14T07:43:29;100285.00;;;23.52;61.30
64343;BME280;50675;53.530;-6.312;2022-08-14T07:45:55;100269.97;;;23.62;61.00
64343;BME280;50675;53.530;-6.312;2022-08-14T07:48:21;100287.09;;;23.80;61.00
64343;BME280;50675;53.530;-6.312;2022-08-14T07:50:47;100278.81;;;23.80;60.74
64343;BME280;50675;53.530;-6.312;2022-08-14T07:53:16;100272.94;;;23.93;60.42
64343;BME280;50675;53.530;-6.312;2022-08-14T07:55:42;100276.28;;;23.99;60.58
64343;BME280;50675;53.530;-6.312;2022-08-14T07:58:09;100261.53;;;24.07;60.04
64343;BME280;50675;53.530;-6.312;2022-08-14T08:00:35;100277.19;;;24.27;59.85
64343;BME280;50675;53.530;-6.312;2022-08-14T08:03:01;100269.78;;;24.31;59.81
64343;BME280;50675;53.530;-6.312;2022-08-14T08:05:28;100282.72;;;24.55;59.75
64343;BME280;50675;53.530;-6.312;2022-08-14T08:07:54;100285.91;;;24.57;59.14
64343;BME280;50675;53.530;-6.312;2022-08-14T08:10:22;100282.56;;;24.64;59.16
64343;BME280;50675;53.530;-6.312;2022-08-14T08:15:24;100288.34;;;24.59;58.56
64343;BME280;50675;53.530;-6.312;2022-08-14T08:17:52;100292.63;;;24.56;58.19
64343;BME280;50675;53.530;-6.312;2022-08-14T08:20:20;100283.31;;;24.49;58.42
64343;BME280;50675;53.530;-6.312;2022-08-14T08:22:48;100286.31;;;24.44;58.32
64343;BME280;50675;53.530;-6.312;2022-08-14T08:25:16;100281.75;;;24.35;58.00
64343;BME280;50675;53.530;-6.312;2022-08-14T08:27:57;100274.38;;;24.39;57.51
64343;BME280;50675;53.530;-6.312;2022-08-14T08:59:14;100275.81;;;24.21;56.91
64343;BME280;50675;53.530;-6.312;2022-08-14T09:08:57;100268.31;;;24.22;56.23
64343;BME280;50675;53.530;-6.312;2022-08-14T09:11:23;100255.34;;;24.22;56.33
64343;BME280;50675;53.530;-6.312;2022-08-14T09:13:52;100269.34;;;24.29;56.17
64343;BME280;50675;53.530;-6.312;2022-08-14T09:16:23;100263.13;;;24.32;56.27
64343;BME280;50675;53.530;-6.312;2022-08-14T09:18:55;100262.53;;;24.39;56.34
64343;BME280;50675;53.530;-6.312;2022-08-14T09:21:21;100265.13;;;24.48;56.10
64343;BME280;50675;53.530;-6.312;2022-08-14T09:23:47;100268.34;;;24.50;55.95
64343;BME280;50675;53.530;-6.312;2022-08-14T09:26:13;100267.41;;;24.58;55.70
64343;BME280;50675;53.530;-6.312;2022-08-14T09:28:39;100264.03;;;24.64;55.75
64343;BME280;50675;53.530;-6.312;2022-08-14T09:31:05;100268.50;;;24.69;55.37
64343;BME280;50675;53.530;-6.312;2022-08-14T09:37:22;100268.00;;;24.79;55.07
64343;BME280;50675;53.530;-6.312;2022-08-14T09:42:06;100259.00;;;24.82;54.79
64343;BME280;50675;53.530;-6.312;2022-08-14T09:47:43;100257.50;;;24.84;54.96
64343;BME280;50675;53.530;-6.312;2022-08-14T09:53:04;100260.63;;;24.83;54.62
64343;BME280;50675;53.530;-6.312;2022-08-14T09:55:34;100257.75;;;24.79;54.49
64343;BME280;50675;53.530;-6.312;2022-08-14T09:58:19;100255.00;;;24.79;54.64
64343;BME280;50675;53.530;-6.312;2022-08-14T10:00:54;100264.69;;;24.73;54.12
64343;BME280;50675;53.530;-6.312;2022-08-14T10:03:27;100263.78;;;24.69;54.11
64343;BME280;50675;53.530;-6.312;2022-08-14T10:08:47;100259.56;;;24.60;54.08
64343;BME280;50675;53.530;-6.312;2022-08-14T10:11:20;100255.19;;;24.59;53.83
64343;BME280;50675;53.530;-6.312;2022-08-14T10:13:52;100251.47;;;24.67;53.91
64343;BME280;50675;53.530;-6.312;2022-08-14T10:16:23;100252.03;;;24.72;54.25
64343;BME280;50675;53.530;-6.312;2022-08-14T10:21:26;100241.75;;;24.85;53.89
64343;BME280;50675;53.530;-6.312;2022-08-14T10:23:52;100240.78;;;24.93;54.09
64343;BME280;50675;53.530;-6.312;2022-08-14T10:26:19;100244.19;;;25.02;53.79
64343;BME280;50675;53.530;-6.312;2022-08-14T10:28:48;100241.59;;;25.09;53.88
64343;BME280;50675;53.530;-6.312;2022-08-14T10:33:57;100237.25;;;25.24;53.59
64343;BME280;50675;53.530;-6.312;2022-08-14T10:36:41;100238.66;;;25.34;53.78
64343;BME280;50675;53.530;-6.312;2022-08-14T10:39:19;100230.38;;;25.34;53.74
64343;BME280;50675;53.530;-6.312;2022-08-14T10:41:46;100230.84;;;25.36;53.45
64343;BME280;50675;53.530;-6.312;2022-08-14T10:44:14;100221.13;;;25.42;53.46
64343;BME280;50675;53.530;-6.312;2022-08-14T10:46:50;100208.53;;;25.44;53.02
64343;BME280;50675;53.530;-6.312;2022-08-14T10:49:28;100204.25;;;25.47;53.08
64343;BME280;50675;53.530;-6.312;2022-08-14T10:54:32;100193.84;;;25.56;52.81
64343;BME280;50675;53.530;-6.312;2022-08-14T11:02:22;100183.78;;;25.67;52.35
64343;BME280;50675;53.530;-6.312;2022-08-14T11:07:24;100162.53;;;25.71;52.49
64343;BME280;50675;53.530;-6.312;2022-08-14T11:10:25;100155.16;;;25.75;52.16
64343;BME280;50675;53.530;-6.312;2022-08-14T11:13:02;100138.09;;;25.73;52.16
64343;BME280;50675;53.530;-6.312;2022-08-14T11:15:34;100134.16;;;25.74;51.73
64343;BME280;50675;53.530;-6.312;2022-08-14T11:18:23;100133.78;;;25.76;51.64
64343;BME280;50675;53.530;-6.312;2022-08-14T11:21:03;100135.97;;;25.86;51.91
64343;BME280;50675;53.530;-6.312;2022-08-14T11:23:39;100124.78;;;25.79;52.04
64343;BME280;50675;53.530;-6.312;2022-08-14T11:26:48;100122.53;;;25.84;51.41
64343;BME280;50675;53.530;-6.312;2022-08-14T11:29:22;100126.16;;;25.88;51.40
64343;BME280;50675;53.530;-6.312;2022-08-14T11:32:01;100111.25;;;25.93;51.73
64343;BME280;50675;53.530;-6.312;2022-08-14T11:34:47;100110.16;;;25.97;51.49
64343;BME280;50675;53.530;-6.312;2022-08-14T11:37:23;100108.69;;;26.03;51.51
64343;BME280;50675;53.530;-6.312;2022-08-14T11:39:53;100112.03;;;26.12;51.37
64343;BME280;50675;53.530;-6.312;2022-08-14T11:42:29;100095.28;;;26.05;50.83
64343;BME280;50675;53.530;-6.312;2022-08-14T11:45:13;100092.22;;;26.10;50.71
64343;BME280;50675;53.530;-6.312;2022-08-14T11:47:42;100087.47;;;26.11;51.04
64343;BME280;50675;53.530;-6.312;2022-08-14T11:50:26;100103.53;;;26.21;50.87
64343;BME280;50675;53.530;-6.312;2022-08-14T11:52:58;100105.13;;;26.22;50.38
64343;BME280;50675;53.530;-6.312;2022-08-14T11:55:32;100106.38;;;26.25;50.21
64343;BME280;50675;53.530;-6.312;2022-08-14T11:58:05;100105.66;;;26.28;50.13
64343;BME280;50675;53.530;-6.312;2022-08-14T12:00:30;100094.13;;;26.26;50.44
64343;BME280;50675;53.530;-6.312;2022-08-14T12:02:59;100098.06;;;26.25;50.13
64343;BME280;50675;53.530;-6.312;2022-08-14T12:07:56;100099.94;;;26.40;49.93
64343;BME280;50675;53.530;-6.312;2022-08-14T12:10:23;100101.53;;;26.41;49.98
64343;BME280;50675;53.530;-6.312;2022-08-14T12:12:48;100096.31;;;26.36;49.67
64343;BME280;50675;53.530;-6.312;2022-08-14T12:15:34;100106.50;;;26.32;49.62
64343;BME280;50675;53.530;-6.312;2022-08-14T12:18:00;100097.00;;;26.33;49.67
64343;BME280;50675;53.530;-6.312;2022-08-14T12:20:34;100097.81;;;26.33;49.25
64343;BME280;50675;53.530;-6.312;2022-08-14T12:23:04;100095.13;;;26.37;49.05
64343;BME280;50675;53.530;-6.312;2022-08-14T12:25:31;100096.41;;;26.43;49.56
64343;BME280;50675;53.530;-6.312;2022-08-14T12:28:01;100098.03;;;26.44;49.34
64343;BME280;50675;53.530;-6.312;2022-08-14T12:30:33;100105.66;;;26.50;48.80
64343;BME280;50675;53.530;-6.312;2022-08-14T12:33:00;100101.75;;;26.51;48.98
64343;BME280;50675;53.530;-6.312;2022-08-14T12:35:38;100103.72;;;26.51;48.95
64343;BME280;50675;53.530;-6.312;2022-08-14T12:38:05;100097.41;;;26.54;48.64
64343;BME280;50675;53.530;-6.312;2022-08-14T12:40:31;100095.41;;;26.51;48.62
64343;BME280;50675;53.530;-6.312;2022-08-14T12:43:00;100098.03;;;26.44;48.49
64343;BME280;50675;53.530;-6.312;2022-08-14T12:45:33;100093.22;;;26.41;48.58
64343;BME280;50675;53.530;-6.312;2022-08-14T12:48:02;100095.00;;;26.30;48.44
64343;BME280;50675;53.530;-6.312;2022-08-14T12:50:39;100091.06;;;26.31;48.58
64343;BME280;50675;53.530;-6.312;2022-08-14T12:53:07;100088.72;;;26.33;48.55
64343;BME280;50675;53.530;-6.312;2022-08-14T12:55:35;100085.63;;;26.38;48.42
64343;BME280;50675;53.530;-6.312;2022-08-14T12:58:03;100076.16;;;26.39;48.27
64343;BME280;50675;53.530;-6.312;2022-08-14T13:00:35;100074.34;;;26.46;48.14
64343;BME280;50675;53.530;-6.312;2022-08-14T13:03:03;100080.53;;;26.40;48.06
64343;BME280;50675;53.530;-6.312;2022-08-14T13:05:32;100080.09;;;26.38;48.08
64343;BME280;50675;53.530;-6.312;2022-08-14T13:08:12;100082.56;;;26.43;47.90
64343;BME280;50675;53.530;-6.312;2022-08-14T13:19:00;100067.91;;;26.42;47.75
64343;BME280;50675;53.530;-6.312;2022-08-14T13:25:15;100071.50;;;26.43;47.85
64343;BME280;50675;53.530;-6.312;2022-08-14T13:28:10;100075.25;;;26.54;47.26
64343;BME280;50675;53.530;-6.312;2022-08-14T13:34:45;100078.03;;;26.54;47.59
64343;BME280;50675;53.530;-6.312;2022-08-14T13:37:35;100081.25;;;26.56;47.58
64343;BME280;50675;53.530;-6.312;2022-08-14T13:40:07;100086.84;;;26.60;47.41
64343;BME280;50675;53.530;-6.312;2022-08-14T13:42:41;100064.47;;;26.49;47.46
64343;BME280;50675;53.530;-6.312;2022-08-14T13:45:22;100087.50;;;26.53;46.97
64343;BME280;50675;53.530;-6.312;2022-08-14T13:47:51;100074.91;;;26.55;47.11
64343;BME280;50675;53.530;-6.312;2022-08-14T13:50:26;100093.28;;;26.67;47.22
64343;BME280;50675;53.530;-6.312;2022-08-14T13:55:53;100078.22;;;26.65;46.85
64343;BME280;50675;53.530;-6.312;2022-08-14T14:01:29;100093.28;;;26.67;46.39
64343;BME280;50675;53.530;-6.312;2022-08-14T14:12:12;100067.00;;;26.35;45.84
64343;BME280;50675;53.530;-6.312;2022-08-14T14:15:05;100070.00;;;26.26;46.18
64343;BME280;50675;53.530;-6.312;2022-08-14T14:17:42;100057.97;;;26.19;46.08
64343;BME280;50675;53.530;-6.312;2022-08-14T14:39:47;100060.81;;;26.41;45.47
64343;BME280;50675;53.530;-6.312;2022-08-14T14:42:16;100051.00;;;26.47;45.68
64343;BME280;50675;53.530;-6.312;2022-08-14T14:44:43;100041.03;;;26.43;45.34
64343;BME280;50675;53.530;-6.312;2022-08-14T14:47:12;100047.13;;;26.52;45.27
64343;BME280;50675;53.530;-6.312;2022-08-14T14:49:38;100039.25;;;26.54;44.96
64343;BME280;50675;53.530;-6.312;2022-08-14T14:52:06;100042.38;;;26.52;45.19
64343;BME280;50675;53.530;-6.312;2022-08-14T14:54:33;100041.66;;;26.55;45.19